createdAt,value
2022-08-11T00:00:06.391Z,102107.84
2022-08-11T00:02:38.570Z,102096.69
2022-08-11T00:05:07.836Z,102096.56
2022-08-11T00:07:42.481Z,102094.97
2022-08-11T00:10:14.814Z,102097.13
2022-08-11T00:12:43.384Z,102099.25
2022-08-11T00:15:11.198Z,102101.88
2022-08-11T00:17:38.758Z,102098.03
2022-08-11T00:20:13.977Z,102099.38
2022-08-11T00:22:46.712Z,102102.88
2022-08-11T00:25:19.799Z,102095.84
2022-08-11T00:27:47.909Z,102094.97
2022-08-11T00:30:15.983Z,102098.06
2022-08-11T00:32:45.508Z,102101.25
2022-08-11T00:35:54.227Z,102099.66
2022-08-11T00:38:04.950Z,102096.28
2022-08-11T00:40:41.707Z,102103.03
2022-08-11T00:43:20.252Z,102101.72
2022-08-11T00:46:25.340Z,102098.88
2022-08-11T00:49:00.815Z,102089.56
2022-08-11T00:52:05.360Z,102093.63
2022-08-11T00:54:38.782Z,102091.66
2022-08-11T00:57:37.097Z,102096.56
2022-08-11T01:00:19.683Z,102098.59
2022-08-11T01:03:24.083Z,102094.25
2022-08-11T01:06:04.519Z,102099.28
2022-08-11T01:08:40.171Z,102097.59
2022-08-11T01:11:15.625Z,102100.84
2022-08-11T01:13:54.762Z,102097.50
2022-08-11T01:17:04.803Z,102106.53
2022-08-11T01:20:38.743Z,102099.03
2022-08-11T01:23:17.458Z,102102.81
2022-08-11T01:26:14.838Z,102102.94
2022-08-11T01:29:02.905Z,102102.38
2022-08-11T01:31:45.816Z,102107.00
2022-08-11T01:34:27.331Z,102110.06
2022-08-11T01:37:15.169Z,102103.19
2022-08-11T01:39:57.165Z,102103.56
2022-08-11T01:42:45.514Z,102097.81
2022-08-11T01:45:41.685Z,102105.56
2022-08-11T01:48:20.862Z,102108.91
2022-08-11T01:51:16.720Z,102105.31
2022-08-11T01:54:04.574Z,102102.34
2022-08-11T01:56:52.881Z,102106.38
2022-08-11T01:59:23.219Z,102099.78
2022-08-11T02:02:43.451Z,102103.84
2022-08-11T02:05:26.354Z,102099.56
2022-08-11T02:08:16.746Z,102092.34
2022-08-11T02:11:22.135Z,102102.81
2022-08-11T02:13:53.547Z,102101.69
2022-08-11T02:16:36.827Z,102104.09
2022-08-11T02:19:35.738Z,102087.84
2022-08-11T02:22:39.957Z,102093.59
2022-08-11T02:25:18.792Z,102094.81
2022-08-11T02:27:57.384Z,102090.97
2022-08-11T02:30:29.745Z,102091.81
2022-08-11T02:33:23.649Z,102094.81
2022-08-11T02:36:19.722Z,102092.28
2022-08-11T02:38:51.542Z,102093.28
2022-08-11T02:42:01.723Z,102086.47
2022-08-11T02:44:44.904Z,102084.69
2022-08-11T02:47:38.326Z,102091.19
2022-08-11T02:50:21.002Z,102093.06
2022-08-11T02:52:53.690Z,102096.75
2022-08-11T02:55:57.597Z,102090.28
2022-08-11T02:59:14.605Z,102088.38
2022-08-11T03:01:49.332Z,102084.97
2022-08-11T03:04:37.694Z,102080.72
2022-08-11T03:07:28.932Z,102078.69
2022-08-11T03:10:24.472Z,102085.50
2022-08-11T03:13:43.982Z,102080.72
2022-08-11T03:16:39.965Z,102078.13
2022-08-11T03:19:28.424Z,102083.34
2022-08-11T03:22:12.302Z,102090.19
2022-08-11T15:25:55.401Z,101814.59
2022-08-11T15:28:41.995Z,101813.63
2022-08-11T15:31:27.170Z,101804.34
2022-08-11T15:34:19.859Z,101803.56
2022-08-11T15:37:08.140Z,101793.44
2022-08-11T15:40:30.099Z,101782.75
2022-08-11T15:43:35.307Z,101797.09
2022-08-11T15:46:11.368Z,101787.00
2022-08-11T15:48:48.452Z,101778.94
2022-08-11T15:51:25.705Z,101792.13
2022-08-11T15:53:56.767Z,101785.63
2022-08-11T15:56:31.834Z,101782.91
2022-08-11T15:59:43.226Z,101781.50
2022-08-11T16:02:17.602Z,101787.91
2022-08-11T16:04:48.611Z,101783.53
2022-08-11T16:07:27.064Z,101782.13
2022-08-11T16:10:00.539Z,101778.16
2022-08-11T16:12:35.519Z,101777.78
2022-08-11T16:15:25.137Z,101768.50
2022-08-11T16:17:57.605Z,101780.75
2022-08-11T16:20:27.046Z,101783.16
2022-08-11T16:23:01.829Z,101773.81
2022-08-11T16:26:30.580Z,101781.72
2022-08-11T16:28:22.137Z,101773.38
2022-08-11T16:30:51.054Z,101764.56
2022-08-11T16:33:49.008Z,101768.81
2022-08-11T16:36:28.229Z,101782.28
2022-08-11T16:38:59.441Z,101785.94
2022-08-11T16:41:47.748Z,101782.72
2022-08-11T16:44:37.542Z,101790.63
2022-08-11T16:47:12.099Z,101787.78
2022-08-11T16:49:44.225Z,101782.13
2022-08-11T16:52:19.696Z,101782.53
2022-08-11T16:54:47.702Z,101777.22
2022-08-11T16:57:46.016Z,101787.25
2022-08-11T17:00:16.068Z,101782.47
2022-08-11T17:03:11.101Z,101784.41
2022-08-11T17:06:02.954Z,101783.59
2022-08-11T17:08:57.121Z,101770.75
2022-08-11T17:11:46.384Z,101771.84
2022-08-11T17:14:35.579Z,101768.63
2022-08-11T17:17:13.546Z,101774.97
2022-08-11T17:20:40.172Z,101768.44
2022-08-11T17:22:59.847Z,101767.72
2022-08-11T17:25:32.357Z,101765.69
2022-08-11T17:28:21.472Z,101757.44
2022-08-11T17:31:21.980Z,101757.03
2022-08-11T17:34:09.036Z,101757.22
2022-08-11T17:36:38.499Z,101760.28
2022-08-11T17:39:09.133Z,101758.22
2022-08-11T17:41:58.462Z,101759.16
2022-08-11T17:44:45.577Z,101755.50
2022-08-11T17:47:45.940Z,101768.13
2022-08-11T17:50:17.793Z,101762.22
2022-08-11T17:53:05.377Z,101760.25
2022-08-11T17:55:53.841Z,101750.66
2022-08-11T17:58:40.404Z,101754.56
2022-08-11T18:01:10.891Z,101758.94
2022-08-11T18:03:40.846Z,101766.47
2022-08-11T18:06:12.556Z,101757.94
2022-08-11T18:09:02.694Z,101760.47
2022-08-11T18:12:09.826Z,101762.19
2022-08-11T18:14:57.802Z,101755.44
2022-08-11T18:17:43.042Z,101760.97
2022-08-11T18:20:28.807Z,101767.00
2022-08-11T18:23:16.451Z,101763.06
2022-08-11T18:26:07.325Z,101775.03
2022-08-11T18:29:05.204Z,101768.56
2022-08-11T18:31:56.587Z,101775.47
2022-08-11T18:34:54.459Z,101767.59
2022-08-11T18:37:53.882Z,101773.63
2022-08-11T18:40:46.250Z,101776.16
2022-08-11T18:43:35.462Z,101777.31
2022-08-11T18:46:25.145Z,101780.38
2022-08-11T18:49:15.762Z,101773.47
2022-08-11T18:52:08.749Z,101780.50
2022-08-11T18:54:57.527Z,101773.19
2022-08-11T18:57:50.128Z,101783.97
2022-08-11T19:00:42.415Z,101784.09
2022-08-11T19:03:30.998Z,101785.09
2022-08-11T19:06:39.504Z,101788.56
2022-08-11T19:09:29.134Z,101787.38
2022-08-11T19:12:15.307Z,101785.28
2022-08-11T19:15:03.551Z,101789.94
2022-08-11T19:17:51.502Z,101796.66
2022-08-11T19:20:39.884Z,101796.69
2022-08-11T19:23:27.620Z,101800.69
2022-08-11T19:26:14.275Z,101797.91
2022-08-11T19:29:02.199Z,101794.09
2022-08-11T19:31:48.637Z,101793.69
2022-08-11T19:34:40.520Z,101803.75
2022-08-11T19:37:27.258Z,101806.28
2022-08-11T19:40:20.037Z,101809.69
2022-08-11T19:43:14.899Z,101811.63
2022-08-11T19:46:16.747Z,101811.88
2022-08-11T19:49:04.012Z,101814.63
2022-08-11T19:51:53.663Z,101817.03
2022-08-11T19:54:44.045Z,101813.78
2022-08-11T19:57:33.405Z,101812.72
2022-08-11T20:00:30.116Z,101811.03
2022-08-11T20:03:16.649Z,101807.31
2022-08-11T20:06:02.724Z,101809.09
2022-08-11T20:08:48.709Z,101802.19
2022-08-11T20:11:36.555Z,101803.91
2022-08-11T20:14:23.805Z,101802.22
2022-08-11T20:17:12.711Z,101806.84
2022-08-11T20:22:48.554Z,101805.25
2022-08-11T20:25:36.358Z,101803.81
2022-08-11T20:28:24.281Z,101809.75
2022-08-11T20:31:12.189Z,101808.81
2022-08-11T20:33:59.473Z,101809.72
2022-08-11T20:36:52.509Z,101809.31
2022-08-11T20:39:42.066Z,101807.06
2022-08-11T20:42:30.482Z,101806.44
2022-08-11T20:45:18.809Z,101811.28
2022-08-11T20:48:14.756Z,101803.03
2022-08-11T20:51:07.267Z,101817.47
2022-08-11T20:53:57.897Z,101802.28
2022-08-11T20:56:46.110Z,101807.97
2022-08-11T20:59:38.497Z,101803.09
2022-08-11T21:02:36.045Z,101816.00
2022-08-11T21:06:08.223Z,101813.22
2022-08-11T21:08:28.527Z,101814.16
2022-08-11T21:11:14.356Z,101814.63
2022-08-11T21:14:13.931Z,101822.81
2022-08-11T21:17:00.732Z,101818.97
2022-08-11T21:20:15.531Z,101821.22
2022-08-11T21:23:24.091Z,101824.44
2022-08-11T21:26:15.531Z,101821.28
2022-08-11T21:29:02.531Z,101831.06
2022-08-11T21:31:50.792Z,101824.19
2022-08-11T21:34:39.949Z,101827.53
2022-08-11T21:37:26.794Z,101825.22
2022-08-11T21:40:17.893Z,101822.50
2022-08-11T21:43:05.887Z,101832.13
2022-08-11T21:45:55.696Z,101827.53
2022-08-11T21:48:45.415Z,101832.34
2022-08-11T21:51:31.177Z,101828.38
2022-08-11T21:54:19.065Z,101829.28
2022-08-11T21:57:05.846Z,101830.53
2022-08-11T22:00:07.296Z,101835.03
2022-08-11T22:03:01.308Z,101834.06
2022-08-11T22:05:50.509Z,101837.78
2022-08-11T22:08:36.541Z,101838.34
2022-08-11T22:11:31.754Z,101835.38
2022-08-11T22:14:20.042Z,101836.72
2022-08-11T22:17:05.554Z,101844.38
2022-08-11T22:19:53.419Z,101838.78
2022-08-11T22:22:52.127Z,101841.78
2022-08-11T22:25:51.662Z,101843.19
2022-08-11T22:28:40.686Z,101835.84
2022-08-11T22:31:27.487Z,101837.84
2022-08-11T22:34:12.734Z,101841.38
2022-08-11T22:37:03.763Z,101835.94
2022-08-11T22:39:59.652Z,101831.09
2022-08-11T22:42:49.720Z,101834.06
2022-08-11T22:45:35.138Z,101835.34
2022-08-11T22:48:23.980Z,101827.47
2022-08-11T22:51:10.679Z,101832.91
2022-08-11T22:53:59.137Z,101829.28
2022-08-11T22:56:49.747Z,101829.78
2022-08-11T22:59:37.132Z,101828.19
2022-08-11T23:02:23.864Z,101839.94
2022-08-11T23:05:10.160Z,101835.38
2022-08-11T23:07:57.400Z,101831.44
2022-08-11T23:10:44.147Z,101824.47
2022-08-11T23:13:30.007Z,101835.88
2022-08-11T23:16:17.013Z,101838.66
2022-08-11T23:19:03.697Z,101837.59
2022-08-11T23:21:50.533Z,101841.94
2022-08-11T23:24:36.812Z,101832.97
2022-08-11T23:27:24.356Z,101840.16
2022-08-11T23:30:13.418Z,101841.66
2022-08-11T23:33:04.363Z,101835.13
2022-08-11T23:35:56.764Z,101833.78
2022-08-11T23:38:46.650Z,101837.91
2022-08-11T23:41:33.088Z,101828.72
2022-08-11T23:44:20.209Z,101834.63
2022-08-11T23:47:08.421Z,101840.16
2022-08-11T23:49:58.346Z,101830.22
2022-08-11T23:52:45.655Z,101826.56
2022-08-11T23:55:31.433Z,101835.31
2022-08-11T23:58:16.693Z,101832.06
